Latest Weather Observations for Hindmarsh Island

IDS60901

Issued at 12:51 pm CST Thursday 27 April 2017 (issued every 10 minutes, with the page automatically refreshed every 10 minutes)

About weather observations | Map of Adelaide area stations | Latest observations for Adelaide area | Other Formats
Station Details ID: 023894 Name: HINDMARSH ISLAND AWS Lat: -35.52 Lon: 138.82 Height: 11.0 m
Data from the previous 72 hours. | See also: Recent months at Hindmarsh Island
Date/Time
CST
Temp
°C
App
Temp
°C
Dew
Point
°C
Rel
Hum
%
Delta-T
°C
Wind Press
QNH
hPa
Press
MSL
hPa
Rain since
9am
mm
Dir  Spd
km/h
Gust
km/h
Spd
kts
Gust
kts
27/12:30pm 15.9 11.2 7.9 59 4.0 WSW 22 30 12 16 1026.9 1026.9 0.0
27/12:00pm 16.6 12.1 8.6 59 4.1 SW 22 30 12 16 1027.2 1027.2 0.0
27/11:30am 16.1 11.7 7.6 57 4.2 WSW 20 28 11 15 1027.7 1027.7 0.0
27/11:00am 15.6 11.4 8.1 61 3.8 W 20 28 11 15 1027.8 1027.8 0.0
27/10:30am 14.9 10.0 8.6 66 3.2 W 24 37 13 20 1027.8 1027.8 0.0
27/10:00am 15.2 10.9 7.7 61 3.7 W 20 28 11 15 1027.9 1027.9 0.0
27/09:30am 14.4 10.9 8.6 68 2.9 W 17 24 9 13 1028.0 1028.0 0.0
27/09:00am 14.2 11.6 7.9 66 3.1 S 11 22 6 12 1028.1 1028.1 1.4
27/08:30am 13.5 10.5 7.5 67 2.9 W 13 17 7 9 1027.9 1027.9 1.4
27/08:00am 14.3 10.2 7.8 65 3.2 WSW 19 28 10 15 1027.3 1027.3 1.4
27/07:30am 14.3 9.9 7.4 63 3.4 SW 20 26 11 14 1026.8 1026.8 1.4
27/07:00am 13.8 9.0 7.3 65 3.2 S 22 28 12 15 1026.4 1026.4 1.4
27/06:30am 13.7 8.9 5.8 59 3.7 SW 20 26 11 14 1026.4 1026.4 1.4
27/06:00am 13.8 7.1 5.7 58 3.8 SW 30 35 16 19 1026.3 1026.3 1.4
27/05:30am 14.1 8.1 6.9 62 3.5 SSW 28 35 15 19 1026.0 1026.0 1.4
27/05:00am 14.0 7.5 6.6 61 3.6 SSW 30 33 16 18 1025.7 1025.7 1.4
27/04:30am 14.2 7.7 8.2 67 3.0 SSW 32 41 17 22 1025.3 1025.3 1.4
27/04:00am 14.0 8.5 6.1 59 3.8 SSW 24 32 13 17 1025.1 1025.1 1.4
27/03:30am 14.2 8.5 4.8 53 4.3 SW 24 30 13 16 1025.1 1025.1 1.4
27/03:00am 13.6 7.5 5.0 56 4.0 SSW 26 33 14 18 1025.2 1025.2 1.4
27/02:30am 13.5 8.1 6.4 62 3.4 S 24 32 13 17 1025.4 1025.4 1.4
27/02:00am 13.4 6.6 7.8 69 2.8 S 33 41 18 22 1025.5 1025.5 1.4
27/01:30am 13.1 7.3 8.0 71 2.5 S 28 37 15 20 1025.5 1025.5 1.4
27/01:00am 13.3 7.2 8.4 72 2.4 S 30 37 16 20 1025.5 1025.5 1.2
27/12:30am 12.9 6.5 8.4 74 2.2 S 32 39 17 21 1025.3 1025.3 1.2
27/12:00am 12.0 6.7 8.5 79 1.7 S 26 32 14 17 1025.3 1025.3 1.2
 
Date/Time
CST
Temp
°C
App
Temp
°C
Dew
Point
°C
Rel
Hum
%
Delta-T
°C
Wind Press
QNH
hPa
Press
MSL
hPa
Rain since
9am
mm
Dir  Spd
km/h
Gust
km/h
Spd
kts
Gust
kts
26/11:31pm 13.7 7.5 7.7 67 3.0 SSW 30 48 16 26 1025.0 1025.0 0.6
26/11:30pm 14.0 8.2 7.8 66 3.0 SSW 28 41 15 22 1025.1 1025.1 0.6
26/11:00pm 13.6 5.9 6.9 64 3.2 S 37 46 20 25 1025.1 1025.1 0.6
26/10:48pm 13.6 6.6 6.7 63 3.3 SSW 33 44 18 24 1024.9 1024.9 0.6
26/10:30pm 13.0 9.3 7.9 71 2.5 SSW 17 26 9 14 1025.2 1025.2 0.6
26/10:00pm 12.0 4.7 7.3 73 2.3 S 35 46 19 25 1025.4 1025.4 0.6
26/09:30pm 12.8 5.2 5.9 63 3.2 SSW 35 48 19 26 1025.1 1025.1 0.6
26/09:12pm 13.9 8.5 7.9 67 3.0 SW 26 52 14 28 1024.5 1024.5 0.6
26/09:00pm 13.2 8.7 6.8 65 3.1 SW 20 26 11 14 1024.8 1024.8 0.6
26/08:30pm 13.2 6.3 6.3 63 3.3 SW 32 39 17 21 1024.8 1024.8 0.6
26/08:00pm 13.9 6.5 5.0 55 4.1 SSW 33 48 18 26 1024.3 1024.3 0.6
26/07:30pm 13.8 5.5 4.1 52 4.4 SSW 37 46 20 25 1024.2 1024.2 0.6
26/07:00pm 13.2 5.7 6.5 64 3.2 S 35 54 19 29 1024.1 1024.1 0.6
26/06:56pm 13.6 6.6 6.7 63 3.3 S 33 54 18 29 1023.9 1023.9 0.6
26/06:30pm 13.8 6.7 5.4 57 3.9 SSW 32 41 17 22 1023.7 1023.7 0.6
26/06:00pm 13.7 6.4 4.6 54 4.2 SSW 32 46 17 25 1023.3 1023.3 0.6
26/05:30pm 13.7 6.4 4.6 54 4.2 SSW 32 41 17 22 1023.1 1023.1 0.6
26/05:00pm 13.8 7.0 5.2 56 4.0 SSW 30 35 16 19 1023.1 1023.1 0.6
26/04:30pm 13.9 6.5 5.0 55 4.1 SSW 33 41 18 22 1022.7 1022.7 0.6
26/04:00pm 13.8 6.6 4.9 55 4.1 S 32 37 17 20 1022.8 1022.8 0.6
26/03:30pm 14.6 6.8 5.1 53 4.4 S 35 43 19 23 1022.5 1022.5 0.6
26/03:00pm 14.2 6.0 4.8 53 4.4 S 37 46 20 25 1022.2 1022.2 0.6
26/02:30pm 14.1 6.1 5.5 56 4.0 S 37 44 20 24 1021.8 1021.8 0.6
26/02:13pm 13.8 6.7 8.0 68 2.9 S 35 52 19 28 1021.8 1021.8 0.6
26/02:11pm 14.1 7.2 7.4 64 3.3 SSW 33 52 18 28 1021.7 1021.7 0.6
26/02:00pm 14.4 7.1 7.0 61 3.6 S 35 46 19 25 1021.7 1021.7 0.6
26/01:30pm 15.3 7.7 5.8 53 4.5 S 35 43 19 23 1021.6 1021.6 0.6
26/01:00pm 14.5 5.5 6.6 59 3.8 S 43 56 23 30 1021.5 1021.5 0.6
26/12:31pm 14.4 5.7 7.7 64 3.3 S 43 63 23 34 1021.4 1021.4 0.6
26/12:30pm 14.5 6.0 7.1 61 3.6 S 41 56 22 30 1021.2 1021.2 0.6
26/12:00pm 14.1 5.7 7.2 63 3.4 S 41 52 22 28 1021.6 1021.6 0.6
26/11:35am 12.4 4.0 8.9 79 1.8 SSW 43 61 23 33 1021.8 1021.8 0.6
26/11:30am 12.8 3.3 8.5 75 2.1 SSW 48 65 26 35 1021.6 1021.6 0.4
26/11:19am 14.5 6.1 7.3 62 3.5 S 41 59 22 32 1021.3 1021.3 0.2
26/11:00am 12.7 5.9 7.8 72 2.4 S 33 46 18 25 1021.4 1021.4 0.2
26/10:49am 11.6 2.3 7.7 77 1.9 S 46 65 25 35 1021.4 1021.4 0.2
26/10:30am 13.2 4.7 7.0 66 3.0 S 41 56 22 30 1020.9 1020.9 0.2
26/10:11am 13.9 4.3 6.3 60 3.6 SSW 46 69 25 37 1020.0 1020.0 0.0
26/10:00am 14.0 4.7 5.9 58 3.8 SSW 44 57 24 31 1020.5 1020.5 0.0
26/09:30am 13.9 3.7 5.3 56 4.0 S 48 56 26 30 1020.3 1020.3 0.0
26/09:00am 13.4 4.1 7.4 67 2.9 S 46 65 25 35 1019.5 1019.5 4.4
26/08:53am 13.7 4.6 6.8 63 3.3 S 44 57 24 31 1019.9 1019.9 4.4
26/08:30am 13.0 0.9 4.4 56 3.9 SSW 57 70 31 38 1019.1 1019.1 4.4
26/08:15am 12.4 1.0 5.1 61 3.4 S 54 72 29 39 1018.8 1018.8 4.4
26/08:00am 12.9 2.8 5.6 61 3.4 SSW 48 65 26 35 1018.1 1018.1 4.4
26/07:50am 11.3 -0.5 5.8 69 2.6 SSW 57 87 31 47 1018.3 1018.3 4.4
26/07:41am 12.3 1.3 6.8 69 2.6 SSW 54 87 29 47 1017.6 1017.6 4.4
26/07:30am 11.7 1.9 5.3 65 2.9 SSW 46 69 25 37 1018.0 1018.0 4.4
26/07:07am 12.6 2.2 6.2 65 3.0 SSW 50 70 27 38 1017.0 1017.0 4.4
26/07:00am 12.9 2.4 5.6 61 3.4 SSW 50 63 27 34 1017.2 1017.2 4.4
26/06:30am 12.8 1.9 5.7 62 3.3 SSW 52 70 28 38 1016.9 1016.9 4.4
26/06:20am 12.2 2.3 4.9 61 3.3 SSW 46 67 25 36 1016.6 1016.6 4.4
26/06:00am 11.2 0.4 6.1 71 2.4 SSW 52 69 28 37 1016.5 1016.5 4.4
26/05:31am 12.2 0.4 5.8 65 3.0 SW 57 80 31 43 1015.7 1015.7 4.2
26/05:30am 12.2 0.5 6.0 66 2.9 SW 57 72 31 39 1015.7 1015.7 4.2
26/05:00am 12.2 0.1 6.0 66 2.9 SSW 59 82 32 44 1015.2 1015.2 4.2
26/04:30am 12.1 -0.3 4.6 60 3.4 SSW 59 80 32 43 1014.9 1014.9 4.2
26/04:24am 12.9 0.5 4.8 58 3.7 SSW 59 80 32 43 1014.4 1014.4 4.2
26/04:00am 12.6 0.6 4.8 59 3.6 SSW 57 74 31 40 1014.2 1014.2 4.2
26/03:30am 11.9 -0.7 5.5 65 3.0 SW 61 83 33 45 1013.6 1013.6 4.2
26/03:00am 11.9 -0.9 6.4 69 2.6 SSW 63 83 34 45 1013.6 1013.6 4.2
26/02:35am 11.9 -0.9 6.4 69 2.6 SSW 63 82 34 44 1013.0 1013.0 4.2
26/02:30am 12.1 -0.8 7.6 74 2.2 SSW 65 80 35 43 1013.2 1013.2 4.2
26/02:22am 11.7 1.7 8.0 78 1.8 SW 50 80 27 43 1012.8 1012.8 4.2
26/02:20am 11.7 2.4 9.1 84 1.3 SW 48 69 26 37 1013.3 1013.3 4.2
26/02:11am 11.6 -0.9 9.3 86 1.2 SSW 65 91 35 49 1013.5 1013.5 4.0
26/02:07am 11.7 0.0 9.3 85 1.2 SSW 61 91 33 49 1013.2 1013.2 4.0
26/02:04am 11.5 0.7 7.6 77 1.9 SW 54 91 29 49 1012.6 1012.6 3.6
26/02:03am 11.9 1.9 7.8 76 2.0 SW 50 87 27 47 1012.6 1012.6 3.6
26/02:00am 11.6 1.9 7.7 77 1.9 SSW 48 65 26 35 1013.0 1013.0 3.6
26/01:33am 12.7 1.5 8.4 75 2.1 SW 57 78 31 42 1012.5 1012.5 2.4
26/01:30am 12.4 1.1 8.1 75 2.1 SW 57 70 31 38 1012.5 1012.5 2.4
26/01:19am 13.4 2.2 8.5 72 2.4 SW 57 95 31 51 1012.4 1012.4 2.2
26/01:05am 14.0 2.7 7.3 64 3.3 SW 56 74 30 40 1011.8 1011.8 2.2
26/01:00am 14.0 3.2 7.5 65 3.2 SW 54 67 29 36 1012.1 1012.1 2.2
26/12:30am 14.3 3.8 8.9 70 2.7 SW 54 76 29 41 1011.4 1011.4 2.2
26/12:00am 14.1 2.9 8.3 68 2.9 SW 57 76 31 41 1011.6 1011.6 2.2
 
Date/Time
CST
Temp
°C
App
Temp
°C
Dew
Point
°C
Rel
Hum
%
Delta-T
°C
Wind Press
QNH
hPa
Press
MSL
hPa
Rain since
9am
mm
Dir  Spd
km/h
Gust
km/h
Spd
kts
Gust
kts
25/11:53pm 14.2 3.8 7.9 66 3.1 SW 52 70 28 38 1011.4 1011.4 2.2
25/11:30pm 14.1 3.9 8.5 69 2.8 SW 52 69 28 37 1011.4 1011.4 2.2
25/11:00pm 13.2 2.9 10.9 86 1.2 SW 56 76 30 41 1011.5 1011.5 2.0
25/10:30pm 13.7 4.2 11.2 85 1.3 SW 52 70 28 38 1011.2 1011.2 1.4
25/10:23pm 14.0 5.4 11.5 85 1.3 WSW 48 74 26 40 1011.3 1011.3 1.0
25/10:20pm 14.4 7.1 11.6 83 1.5 WSW 41 74 22 40 1011.0 1011.0 0.8
25/10:16pm 14.5 8.6 11.1 80 1.8 WSW 33 56 18 30 1011.1 1011.1 0.8
25/10:00pm 15.3 10.7 10.9 75 2.3 W 26 35 14 19 1011.0 1011.0 0.6
25/09:30pm 14.9 10.5 10.3 74 2.4 WNW 24 35 13 19 1010.9 1010.9 0.6
25/09:00pm 15.3 10.9 9.0 66 3.2 W 22 35 12 19 1011.1 1011.1 0.6
25/08:30pm 15.2 10.7 8.4 64 3.4 W 22 30 12 16 1011.4 1011.4 0.6
25/08:00pm 15.4 10.3 9.1 66 3.2 W 26 41 14 22 1011.5 1011.5 0.6
25/07:30pm 15.3 9.6 9.9 70 2.8 W 30 43 16 23 1011.6 1011.6 0.6
25/07:24pm 15.1 10.7 10.5 74 2.4 W 24 39 13 21 1011.6 1011.6 0.4
25/07:00pm 14.6 12.0 11.9 84 1.5 WNW 17 20 9 11 1011.4 1011.4 0.4
25/06:30pm 14.6 12.0 11.9 84 1.5 WNW 17 24 9 13 1011.2 1011.2 0.4
25/06:00pm 15.2 12.1 11.6 79 1.9 W 19 26 10 14 1011.1 1011.1 0.2
25/05:30pm 16.2 11.2 10.9 71 2.8 W 28 35 15 19 1011.1 1011.1 0.2
25/05:00pm 16.5 12.7 11.2 71 2.9 W 22 32 12 17 1010.8 1010.8 0.2
25/04:30pm 16.6 12.5 11.3 71 2.9 WSW 24 33 13 18 1011.0 1011.0 0.2
25/04:00pm 16.4 10.2 12.6 78 2.1 WSW 37 48 20 26 1010.9 1010.9 0.2
25/03:30pm 17.3 11.6 13.0 76 2.4 WSW 35 48 19 26 1010.9 1010.9 0.2
25/03:20pm 18.2 13.2 12.2 68 3.3 WSW 30 50 16 27 1010.7 1010.7 0.2
25/03:00pm 19.1 13.8 9.9 55 4.9 W 28 44 15 24 1010.6 1010.6 0.2
25/02:30pm 20.0 14.7 9.9 52 5.4 W 28 43 15 23 1010.6 1010.6 0.2
25/02:00pm 19.7 15.8 12.2 62 4.2 SW 24 28 13 15 1010.8 1010.8 0.2
25/01:30pm 19.0 14.5 12.5 66 3.6 SW 28 35 15 19 1011.2 1011.2 0.0
25/01:00pm 18.9 14.7 12.4 66 3.6 SW 26 33 14 18 1011.5 1011.5 0.0
25/12:30pm 19.3 14.4 12.6 65 3.8 SW 30 35 16 19 1011.7 1011.7 0.0
25/12:00pm 18.4 13.3 13.1 71 3.0 SW 32 39 17 21 1012.2 1012.2 0.0
25/11:30am 18.7 13.9 12.9 69 3.3 SW 30 41 16 22 1012.4 1012.4 0.0
25/11:00am 19.3 15.3 13.0 67 3.6 SW 26 35 14 19 1012.8 1012.8 0.0
25/10:30am 19.7 16.4 13.9 69 3.3 SW 24 32 13 17 1013.0 1013.0 0.0
25/10:00am 19.0 15.4 13.0 68 3.4 WSW 24 33 13 18 1013.0 1013.0 0.0
25/09:30am 18.5 15.8 13.4 72 2.9 W 20 26 11 14 1013.3 1013.3 0.0
25/09:00am 17.7 14.5 13.2 75 2.5 W 22 30 12 16 1013.2 1013.2 0.2
25/08:30am 17.1 14.3 13.2 78 2.2 W 20 28 11 15 1013.0 1013.0 0.2
25/08:00am 16.4 13.5 12.8 79 2.0 W 20 28 11 15 1012.8 1012.8 0.2
25/07:30am 15.4 13.3 12.3 82 1.7 WNW 15 19 8 10 1012.4 1012.4 0.2
25/07:00am 15.6 12.6 12.5 82 1.7 W 20 28 11 15 1012.0 1012.0 0.2
25/06:30am 15.5 13.0 12.3 81 1.8 W 17 20 9 11 1011.8 1011.8 0.2
25/06:00am 15.4 12.5 12.3 82 1.7 W 19 26 10 14 1011.5 1011.5 0.2
25/05:30am 15.2 13.4 12.2 82 1.6 WNW 13 17 7 9 1011.5 1011.5 0.2
25/05:00am 15.2 13.5 12.3 83 1.6 W 13 19 7 10 1011.2 1011.2 0.2
25/04:30am 15.2 13.0 12.2 82 1.6 W 15 19 8 10 1011.0 1011.0 0.2
25/04:00am 14.8 13.3 11.9 83 1.6 WNW 11 15 6 8 1011.0 1011.0 0.2
25/03:30am 15.4 13.6 12.2 81 1.7 W 13 19 7 10 1010.9 1010.9 0.2
25/03:00am 15.7 14.0 12.5 81 1.8 WNW 13 19 7 10 1011.1 1011.1 0.2
25/02:30am 16.2 13.5 12.9 81 1.8 W 19 24 10 13 1011.3 1011.3 0.2
25/02:00am 16.7 14.2 14.0 84 1.5 W 20 28 11 15 1011.4 1011.4 0.2
25/01:30am 16.7 13.5 14.2 85 1.4 WSW 24 32 13 17 1011.2 1011.2 0.2
25/01:00am 17.2 14.5 14.7 85 1.4 WSW 22 32 12 17 1011.2 1011.2 0.2
25/12:30am 17.2 15.1 14.8 86 1.4 W 19 24 10 13 1011.4 1011.4 0.2
25/12:00am 17.2 16.3 14.8 86 1.4 W 13 17 7 9 1011.6 1011.6 0.2
 
Date/Time
CST
Temp
°C
App
Temp
°C
Dew
Point
°C
Rel
Hum
%
Delta-T
°C
Wind Press
QNH
hPa
Press
MSL
hPa
Rain since
9am
mm
Dir  Spd
km/h
Gust
km/h
Spd
kts
Gust
kts
24/11:30pm 16.8 17.5 14.4 86 1.4 NW 4 13 2 7 1011.7 1011.7 0.2
24/11:00pm 16.5 16.5 14.2 86 1.3 NW 7 7 4 4 1011.9 1011.9 0.2
24/10:30pm 15.9 17.1 13.7 87 1.2 CALM 0 0 0 0 1012.1 1012.1 0.2
24/10:00pm 16.4 16.5 14.4 88 1.1 N 7 9 4 5 1012.1 1012.1 0.2
24/09:30pm 16.8 17.1 14.6 87 1.3 WNW 6 9 3 5 1012.4 1012.4 0.2
24/09:00pm 17.1 17.3 14.7 86 1.4 NW 7 9 4 5 1012.7 1012.7 0.2
24/08:30pm 16.9 17.6 14.5 86 1.4 SW 4 9 2 5 1012.6 1012.6 0.2
24/08:00pm 17.2 16.0 15.0 87 1.3 SW 15 20 8 11 1012.7 1012.7 0.2
24/07:30pm 17.5 16.2 14.8 84 1.6 SW 15 19 8 10 1013.2 1013.2 0.0
24/07:00pm 18.1 15.7 15.4 84 1.6 SSW 22 26 12 14 1012.8 1012.8 0.0
24/06:30pm 19.1 18.6 14.8 76 2.5 WSW 11 13 6 7 1012.8 1012.8 0.0
24/06:00pm 19.4 18.4 14.6 74 2.8 W 13 17 7 9 1012.7 1012.7 0.0
24/05:30pm 19.7 17.4 14.7 73 2.9 WNW 20 28 11 15 1012.3 1012.3 0.0
24/05:00pm 19.9 18.0 15.1 74 2.8 WNW 19 24 10 13 1012.4 1012.4 0.0
24/04:30pm 19.7 19.3 15.1 75 2.7 NW 11 20 6 11 1012.4 1012.4 0.0
24/04:00pm 19.7 17.7 14.9 74 2.8 NW 19 26 10 14 1012.4 1012.4 0.0
24/03:30pm 19.9 18.0 15.7 77 2.5 NW 20 30 11 16 1012.6 1012.6 0.0
24/03:00pm 20.3 19.0 15.7 75 2.7 NW 17 20 9 11 1012.5 1012.5 0.0
24/02:30pm 20.1 19.4 15.5 75 2.7 NW 13 20 7 11 1012.7 1012.7 0.0
24/02:00pm 19.4 19.2 15.7 79 2.2 NE 11 15 6 8 1012.9 1012.9 0.0
24/01:30pm 19.5 18.5 15.6 78 2.3 NNE 15 19 8 10 1013.3 1013.3 0.0
24/01:00pm 19.1 19.0 15.0 77 2.4 NNE 9 15 5 8 1013.9 1013.9 0.0

Latest Capital City Observations: Canberra | Sydney | Melbourne | Brisbane | Adelaide | Perth | Hobart | Darwin

Other Formats:

Comma delimited format used in spreadsheet applications
http://www.bom.gov.au/fwo/IDS60901/IDS60901.94677.axf

JavaScript Object Notation format (JSON) in row-major order
http://www.bom.gov.au/fwo/IDS60901/IDS60901.94677.json